createdAt,value
2018-09-23T00:00:29.057Z,83.64
2018-09-23T00:01:28.984Z,84.11
2018-09-23T00:02:28.907Z,83.83
2018-09-23T00:03:28.832Z,84.20
2018-09-23T00:04:28.755Z,84.30
2018-09-23T00:05:28.682Z,84.01
2018-09-23T00:06:28.609Z,84.30
2018-09-23T00:07:28.532Z,83.44
2018-09-23T00:08:28.456Z,82.87
2018-09-23T00:09:28.482Z,82.87
2018-09-23T00:10:28.308Z,83.73
2018-09-23T00:11:28.255Z,84.40
2018-09-23T00:12:28.157Z,83.54
2018-09-23T00:13:28.082Z,83.44
2018-09-23T00:14:28.005Z,83.83
2018-09-23T00:15:27.979Z,86.30
2018-09-23T00:16:27.856Z,85.83
2018-09-23T00:17:27.780Z,85.06
2018-09-23T00:18:27.705Z,85.35
2018-09-23T00:19:27.630Z,85.54
2018-09-23T00:20:27.554Z,84.30
2018-09-23T00:21:27.480Z,83.44
2018-09-23T00:22:27.406Z,83.54
2018-09-23T00:23:27.330Z,82.59
2018-09-23T00:24:27.254Z,81.73
2018-09-23T00:25:27.181Z,80.96
2018-09-23T00:26:27.255Z,81.54
2018-09-23T00:27:27.029Z,82.40
2018-09-23T00:28:26.954Z,82.97
2018-09-23T00:29:26.879Z,85.06
2018-09-23T00:30:26.807Z,88.59
2018-09-23T00:31:26.880Z,91.07
2018-09-23T00:32:26.654Z,86.78
2018-09-23T00:33:26.580Z,84.78
2018-09-23T00:34:26.505Z,82.97
2018-09-23T00:35:26.429Z,83.16
2018-09-23T00:36:26.356Z,85.06
2018-09-23T00:37:26.279Z,84.78
2018-09-23T00:38:26.206Z,84.78
2018-09-23T00:39:26.130Z,85.35
2018-09-23T00:40:26.055Z,84.97
2018-09-23T00:41:25.979Z,84.01
2018-09-23T00:42:25.906Z,84.01
2018-09-23T00:43:25.830Z,84.11
2018-09-23T00:44:25.756Z,84.78
2018-09-23T00:45:25.684Z,85.73
2018-09-23T00:46:25.606Z,90.79
2018-09-23T00:47:25.530Z,93.74
2018-09-23T00:48:25.455Z,92.22
2018-09-23T00:49:25.383Z,94.98
2018-09-23T00:50:25.309Z,96.98
2018-09-23T00:51:25.231Z,95.46
2018-09-23T00:52:25.157Z,96.32
2018-09-23T00:53:25.083Z,98.22
2018-09-23T00:54:25.008Z,97.75
2018-09-23T00:55:24.932Z,95.75
2018-09-23T00:56:24.858Z,89.93
2018-09-23T00:57:24.783Z,88.02
2018-09-23T00:58:24.858Z,87.74
2018-09-23T00:59:24.633Z,86.59
2018-09-23T01:00:24.558Z,88.50
2018-09-23T01:01:24.485Z,88.59
2018-09-23T01:02:24.408Z,92.69
2018-09-23T01:03:24.483Z,91.55
2018-09-23T01:04:24.259Z,90.59
2018-09-23T01:05:24.183Z,92.41
2018-09-23T01:06:24.111Z,96.03
2018-09-23T01:07:24.034Z,96.89
2018-09-23T01:08:23.958Z,97.94
2018-09-23T01:09:23.887Z,97.85
2018-09-23T01:10:23.811Z,95.56
2018-09-23T01:11:23.735Z,99.99
2018-09-23T01:12:23.658Z,96.32
2018-09-23T01:13:23.585Z,99.99
2018-09-23T01:14:23.510Z,96.98
2018-09-23T01:15:23.434Z,99.99
2018-09-23T01:16:23.359Z,99.99
2018-09-23T01:17:23.284Z,99.85
2018-09-23T01:18:23.210Z,97.22
2018-09-23T01:19:23.134Z,97.89
2018-09-23T01:20:23.059Z,98.66
2018-09-23T01:21:22.985Z,97.32
2018-09-23T01:22:22.909Z,95.51
2018-09-23T01:23:22.834Z,94.65
2018-09-23T01:24:22.759Z,93.65
2018-09-23T01:25:22.686Z,95.22
2018-09-23T01:26:22.610Z,93.70
2018-09-23T01:27:22.535Z,93.88
2018-09-23T01:28:22.459Z,96.32
2018-09-23T01:29:22.384Z,93.31
2018-09-23T01:30:22.309Z,93.79
2018-09-23T01:31:22.234Z,92.83
2018-09-23T01:32:22.162Z,92.07
2018-09-23T01:33:22.084Z,92.93
2018-09-23T01:34:22.163Z,94.07
2018-09-23T01:35:21.933Z,91.12
2018-09-23T01:36:21.858Z,91.07
2018-09-23T01:37:21.784Z,92.26
2018-09-23T01:38:21.710Z,91.88
2018-09-23T01:39:21.783Z,90.12
2018-09-23T01:40:21.558Z,89.78
2018-09-23T01:41:21.483Z,89.97
2018-09-23T01:42:21.409Z,90.26
2018-09-23T01:43:21.332Z,89.02
2018-09-23T01:44:21.509Z,88.16
2018-09-23T01:45:21.184Z,87.97
2018-09-23T01:46:21.108Z,89.50
2018-09-23T01:47:21.032Z,88.45
2018-09-23T01:48:20.957Z,87.59
2018-09-23T01:49:20.883Z,89.59
2018-09-23T01:50:20.807Z,88.83
2018-09-23T01:51:20.731Z,89.02
2018-09-23T01:52:20.657Z,88.54
2018-09-23T01:53:20.582Z,88.54
2018-09-23T01:54:20.509Z,87.78
2018-09-23T01:55:20.433Z,86.73
2018-09-23T01:56:20.357Z,85.87
2018-09-23T01:57:20.283Z,86.73
2018-09-23T01:58:30.480Z,88.35
2018-09-23T01:59:20.137Z,87.30
2018-09-23T02:00:20.061Z,86.35
2018-09-23T02:01:19.985Z,85.11
2018-09-23T02:02:19.911Z,85.58
2018-09-23T02:03:19.839Z,85.01
2018-09-23T02:04:19.761Z,85.21
2018-09-23T02:05:19.686Z,85.21
2018-09-23T02:06:19.610Z,84.92
2018-09-23T02:07:19.540Z,84.82
2018-09-23T02:08:19.460Z,84.34
2018-09-23T02:09:19.387Z,83.39
2018-09-23T02:10:19.313Z,82.01
2018-09-23T02:11:19.235Z,81.67
2018-09-23T02:12:19.160Z,83.01
2018-09-23T02:13:19.086Z,83.01
2018-09-23T02:14:19.011Z,82.43
2018-09-23T02:15:18.936Z,81.38
2018-09-23T02:16:18.860Z,80.96
2018-09-23T02:17:18.786Z,80.33
2018-09-23T02:18:18.712Z,81.86
2018-09-23T02:19:18.637Z,81.77
2018-09-23T02:20:18.561Z,81.35
2018-09-23T02:21:18.513Z,81.01
2018-09-23T02:22:18.413Z,80.53
2018-09-23T02:23:18.337Z,80.53
2018-09-23T02:24:18.263Z,79.57
2018-09-23T02:25:18.189Z,78.91
2018-09-23T02:26:18.114Z,79.10
2018-09-23T02:27:18.037Z,79.38
2018-09-23T02:28:17.963Z,79.57
2018-09-23T02:29:17.887Z,79.48
2018-09-23T02:30:17.824Z,79.67
2018-09-23T02:31:17.738Z,80.24
2018-09-23T02:32:17.663Z,79.67
2018-09-23T02:33:17.589Z,79.48
2018-09-23T02:34:17.514Z,79.48
2018-09-23T02:35:17.441Z,80.15
2018-09-23T02:36:17.463Z,79.86
2018-09-23T02:37:17.290Z,80.81
2018-09-23T02:38:17.214Z,79.57
2018-09-23T02:39:17.139Z,79.77
2018-09-23T02:40:17.065Z,80.43
2018-09-23T02:41:16.989Z,80.43
2018-09-23T02:42:16.965Z,81.10
2018-09-23T02:43:16.837Z,80.62
2018-09-23T02:44:16.793Z,81.38
2018-09-23T02:45:16.690Z,81.86
2018-09-23T02:46:16.615Z,80.91
2018-09-23T02:47:16.540Z,81.58
2018-09-23T02:48:16.465Z,81.77
2018-09-23T02:49:16.389Z,81.01
2018-09-23T02:50:16.317Z,81.38
2018-09-23T02:51:16.248Z,81.38
2018-09-23T02:52:16.167Z,81.58
2018-09-23T02:53:16.091Z,81.77
2018-09-23T02:54:16.021Z,81.48
2018-09-23T02:55:15.942Z,81.29
2018-09-23T02:56:15.868Z,81.67
2018-09-23T02:57:15.792Z,81.86
2018-09-23T02:58:15.716Z,81.77
2018-09-23T02:59:15.642Z,81.29
2018-09-23T03:00:15.568Z,80.62
2018-09-23T03:01:15.493Z,81.48
2018-09-23T03:02:15.417Z,82.24
2018-09-23T03:03:15.341Z,82.72
2018-09-23T03:04:15.266Z,81.48
2018-09-23T03:05:15.197Z,81.77
2018-09-23T03:06:15.116Z,80.91
2018-09-23T03:07:15.041Z,80.81
2018-09-23T03:08:14.967Z,80.53
2018-09-23T03:09:14.891Z,79.96
2018-09-23T03:10:14.817Z,81.20
2018-09-23T03:11:14.740Z,81.48
2018-09-23T03:12:14.668Z,81.67
2018-09-23T03:13:14.593Z,83.01
2018-09-23T03:14:14.572Z,82.63
2018-09-23T03:15:14.442Z,82.24
2018-09-23T03:16:14.367Z,82.43
2018-09-23T03:17:14.293Z,81.48
2018-09-23T03:18:14.216Z,81.77
2018-09-23T03:19:14.144Z,80.53
2018-09-23T03:20:14.167Z,80.33
2018-09-23T03:21:13.997Z,82.24
2018-09-23T03:22:13.917Z,83.01
2018-09-23T03:23:13.843Z,82.43
2018-09-23T03:24:13.768Z,82.82
2018-09-23T03:25:13.692Z,82.49
2018-09-23T03:26:13.617Z,81.86
2018-09-23T03:27:13.540Z,82.11
2018-09-23T03:28:13.467Z,81.67
2018-09-23T03:29:13.395Z,81.10
2018-09-23T03:30:13.315Z,80.05
2018-09-23T03:31:13.240Z,80.39
2018-09-23T03:32:13.166Z,80.53
2018-09-23T03:33:13.091Z,81.01
2018-09-23T03:34:13.017Z,80.81
2018-09-23T03:35:12.989Z,81.67
2018-09-23T03:36:12.865Z,83.11
2018-09-23T03:37:12.790Z,83.20
2018-09-23T03:38:12.716Z,83.44
2018-09-23T03:39:12.640Z,83.92
2018-09-23T03:40:12.564Z,84.40
2018-09-23T03:41:12.738Z,82.24
2018-09-23T03:42:12.414Z,81.58
2018-09-23T03:43:12.339Z,81.67
2018-09-23T03:44:12.263Z,82.34
2018-09-23T03:45:12.187Z,82.82
2018-09-23T03:46:12.113Z,82.06
2018-09-23T03:47:12.036Z,82.01
2018-09-23T03:48:11.961Z,82.24
2018-09-23T03:49:11.887Z,82.15
2018-09-23T03:50:11.815Z,80.43
2018-09-23T03:51:11.785Z,81.29
2018-09-23T03:52:11.662Z,80.43
2018-09-23T03:53:11.588Z,81.96
2018-09-23T03:54:11.512Z,80.91
2018-09-23T03:55:11.433Z,81.29
2018-09-23T03:56:11.360Z,80.96
2018-09-23T03:57:11.384Z,82.34
2018-09-23T03:58:11.222Z,82.43
2018-09-23T03:59:11.133Z,81.77
2018-09-23T04:00:11.058Z,81.15
2018-09-23T04:01:10.983Z,81.01
2018-09-23T04:02:10.908Z,80.43
2018-09-23T04:03:10.832Z,80.33
2018-09-23T04:04:10.757Z,80.81
2018-09-23T04:05:10.681Z,80.91
2018-09-23T04:06:10.606Z,80.96
2018-09-23T04:07:10.631Z,80.33
2018-09-23T04:08:10.456Z,80.24
2018-09-23T04:09:10.380Z,79.57
2018-09-23T04:10:10.305Z,79.48
2018-09-23T04:11:10.228Z,79.57
2018-09-23T04:12:10.318Z,79.96
2018-09-23T04:13:10.081Z,79.96
2018-09-23T04:14:10.005Z,79.77
2018-09-23T04:15:09.927Z,79.67
2018-09-23T04:16:09.853Z,79.67
2018-09-23T04:17:09.877Z,79.67
2018-09-23T04:18:09.704Z,80.20
2018-09-23T04:19:09.627Z,80.33
2018-09-23T04:20:09.554Z,79.96
2018-09-23T04:21:09.480Z,79.48
2018-09-23T04:22:09.456Z,79.06
2018-09-23T04:23:09.328Z,79.38
2018-09-23T04:24:09.253Z,79.72
2018-09-23T04:25:09.177Z,79.57
2018-09-23T04:26:09.103Z,79.48
2018-09-23T04:27:09.027Z,79.19
2018-09-23T04:28:08.954Z,78.96
2018-09-23T04:29:08.877Z,79.77
2018-09-23T04:30:08.802Z,79.10
2018-09-23T04:31:08.726Z,78.23
2018-09-23T04:32:08.652Z,79.38
2018-09-23T04:33:08.576Z,79.10
2018-09-23T04:34:08.501Z,78.33
2018-09-23T04:35:08.426Z,77.28
2018-09-23T04:36:08.351Z,77.47
2018-09-23T04:37:08.276Z,78.33
2018-09-23T04:38:08.199Z,77.09
2018-09-23T04:39:08.128Z,77.09
2018-09-23T04:40:08.051Z,76.71
2018-09-23T04:41:07.975Z,76.71
2018-09-23T04:42:07.898Z,76.52
2018-09-23T04:43:07.822Z,76.81
2018-09-23T04:44:07.747Z,76.71
2018-09-23T04:45:07.672Z,75.18
2018-09-23T04:46:07.597Z,74.61
2018-09-23T04:47:07.525Z,75.57
2018-09-23T04:48:07.449Z,75.95
2018-09-23T04:49:07.371Z,76.71
2018-09-23T04:50:07.296Z,76.52
2018-09-23T04:51:07.219Z,76.62
2018-09-23T04:52:07.145Z,77.19
2018-09-23T04:53:07.070Z,77.76
2018-09-23T04:54:06.997Z,77.09
2018-09-23T04:55:06.920Z,76.42
2018-09-23T04:56:06.845Z,76.33
2018-09-23T04:57:06.770Z,75.85
2018-09-23T04:58:06.698Z,75.95
2018-09-23T04:59:06.622Z,76.14
2018-09-23T05:00:06.545Z,75.95
2018-09-23T05:01:06.470Z,74.90
2018-09-23T05:02:06.397Z,74.99
2018-09-23T05:03:06.319Z,75.66
2018-09-23T05:04:06.244Z,75.95
2018-09-23T05:05:06.170Z,75.76
2018-09-23T05:06:06.095Z,75.76
2018-09-23T05:07:06.019Z,76.23
2018-09-23T05:08:05.944Z,75.76
2018-09-23T05:09:05.870Z,75.28
2018-09-23T05:10:05.795Z,73.94
2018-09-23T05:11:05.719Z,75.09
2018-09-23T05:12:05.643Z,74.23
2018-09-23T05:13:05.569Z,73.85
2018-09-23T05:14:05.558Z,73.08
2018-09-23T05:15:05.418Z,73.94
2018-09-23T05:16:05.344Z,73.28
2018-09-23T05:17:05.269Z,73.08
2018-09-23T05:18:05.196Z,73.18
2018-09-23T05:19:05.130Z,73.50
2018-09-23T05:20:05.046Z,73.85
2018-09-23T05:21:04.969Z,74.08
2018-09-23T05:22:04.895Z,73.79
2018-09-23T05:23:04.820Z,73.69
2018-09-23T05:24:04.745Z,72.36
2018-09-23T05:25:04.670Z,72.36
2018-09-23T05:26:04.599Z,72.07
2018-09-23T05:27:04.521Z,71.31
2018-09-23T05:28:04.446Z,71.12
2018-09-23T05:29:04.371Z,71.02
2018-09-23T05:30:04.299Z,70.16
2018-09-23T05:31:04.314Z,70.92
2018-09-23T05:32:04.147Z,71.41
2018-09-23T05:33:04.075Z,72.26
2018-09-23T05:34:03.999Z,72.26
2018-09-23T05:35:03.924Z,72.26
2018-09-23T05:36:03.848Z,72.26
2018-09-23T05:37:03.775Z,72.26
2018-09-23T05:38:03.702Z,72.64
2018-09-23T05:39:03.626Z,73.03
2018-09-23T05:40:03.553Z,73.12
2018-09-23T05:41:03.478Z,72.83
2018-09-23T05:42:03.403Z,72.45
2018-09-23T05:43:03.328Z,71.69
2018-09-23T05:44:03.280Z,71.88
2018-09-23T05:45:03.225Z,71.41
2018-09-23T05:46:03.109Z,71.02
2018-09-23T05:47:03.029Z,71.02
2018-09-23T05:48:02.956Z,70.73
2018-09-23T05:49:02.883Z,70.64
2018-09-23T05:50:02.812Z,70.54
2018-09-23T05:51:02.733Z,70.73
2018-09-23T05:52:02.660Z,70.83
2018-09-23T05:53:02.626Z,71.31
2018-09-23T05:54:02.512Z,71.50
2018-09-23T05:55:02.436Z,71.02
2018-09-23T05:56:02.361Z,70.64
2018-09-23T05:57:02.286Z,70.83
2018-09-23T05:58:02.214Z,70.92
2018-09-23T05:59:02.137Z,70.92
2018-09-23T06:00:02.064Z,70.67
2018-09-23T06:01:01.990Z,69.91
2018-09-23T06:02:01.917Z,69.24
2018-09-23T06:03:01.867Z,69.24
2018-09-23T06:04:01.768Z,69.05
2018-09-23T06:05:01.696Z,68.86
2018-09-23T06:06:01.618Z,69.24
2018-09-23T06:07:01.544Z,69.43
2018-09-23T06:08:01.571Z,70.10
2018-09-23T06:09:01.398Z,70.96
2018-09-23T06:10:01.320Z,71.25
2018-09-23T06:11:01.265Z,71.72
2018-09-23T06:12:01.170Z,71.28
2018-09-23T06:13:01.097Z,71.47
2018-09-23T06:14:01.124Z,71.57
2018-09-23T06:15:00.950Z,71.86
2018-09-23T06:16:00.873Z,71.86
2018-09-23T06:17:00.799Z,73.10
2018-09-23T06:18:00.725Z,73.58
2018-09-23T06:19:00.651Z,74.34
2018-09-23T06:20:00.576Z,74.91
2018-09-23T06:21:00.511Z,75.14
2018-09-23T06:22:00.429Z,76.96
2018-09-23T06:23:00.352Z,79.16
2018-09-23T06:24:00.279Z,79.64
2018-09-23T06:25:00.206Z,80.59
2018-09-23T06:26:00.130Z,81.07
2018-09-23T06:27:00.059Z,81.45
2018-09-23T06:27:59.981Z,83.46
2018-09-23T06:28:59.907Z,84.61
2018-09-23T06:29:59.833Z,83.94
2018-09-23T06:30:59.758Z,84.61
2018-09-23T06:31:59.684Z,83.94
2018-09-23T06:32:59.610Z,83.56
2018-09-23T06:33:59.574Z,82.79
2018-09-23T06:34:59.461Z,82.98
2018-09-23T06:35:59.387Z,81.55
2018-09-23T06:36:59.362Z,81.45
2018-09-23T06:37:59.238Z,81.36
2018-09-23T06:38:59.164Z,81.55
2018-09-23T06:39:59.189Z,81.49
2018-09-23T06:40:59.020Z,80.82
2018-09-23T06:41:58.942Z,80.40
2018-09-23T06:42:58.867Z,79.77
2018-09-23T06:43:58.793Z,80.25
2018-09-23T06:44:58.720Z,81.68
2018-09-23T06:45:58.898Z,81.68
2018-09-23T06:46:58.571Z,80.92
2018-09-23T06:47:58.500Z,79.68
2018-09-23T06:48:58.422Z,79.96
2018-09-23T06:49:58.349Z,82.07
2018-09-23T06:50:58.285Z,84.55
2018-09-23T06:51:58.199Z,83.03
2018-09-23T06:52:58.126Z,83.79
2018-09-23T06:53:58.052Z,85.41
2018-09-23T06:54:57.977Z,85.41
2018-09-23T06:55:57.903Z,82.26
2018-09-23T06:56:57.914Z,83.03
2018-09-23T06:57:57.757Z,83.03
2018-09-23T06:58:57.684Z,83.98
2018-09-23T06:59:57.607Z,84.65
2018-09-23T07:00:57.534Z,84.17
2018-09-23T07:01:57.460Z,83.16
2018-09-23T07:02:57.384Z,82.78
2018-09-23T07:03:57.312Z,83.69
2018-09-23T07:04:57.296Z,83.89
2018-09-23T07:05:57.185Z,82.87
2018-09-23T07:06:57.091Z,82.68
2018-09-23T07:07:57.018Z,82.87
2018-09-23T07:08:56.943Z,83.93
2018-09-23T07:09:56.869Z,84.59
2018-09-23T07:10:56.795Z,84.59
2018-09-23T07:11:56.722Z,82.40
2018-09-23T07:12:56.649Z,81.44
2018-09-23T07:13:56.575Z,82.40
2018-09-23T07:14:56.502Z,83.36
2018-09-23T07:15:56.428Z,82.11
2018-09-23T07:16:56.654Z,81.63
2018-09-23T07:17:56.304Z,81.34
2018-09-23T07:18:56.205Z,81.44
2018-09-23T07:19:56.132Z,81.63
2018-09-23T07:20:56.057Z,81.25
2018-09-23T07:21:55.986Z,80.77
2018-09-23T07:22:55.910Z,81.92
2018-09-23T07:23:55.919Z,82.87
2018-09-23T07:24:55.764Z,82.49
2018-09-23T07:25:55.690Z,83.73
2018-09-23T07:26:55.617Z,84.83
2018-09-23T07:27:55.544Z,84.45
2018-09-23T07:28:55.470Z,84.98
2018-09-23T07:29:55.412Z,85.17
2018-09-23T07:30:55.322Z,84.83
2018-09-23T07:31:55.249Z,87.27
2018-09-23T07:32:55.276Z,87.32
2018-09-23T07:33:55.106Z,86.94
2018-09-23T07:34:55.031Z,90.39
2018-09-23T07:35:54.956Z,90.39
2018-09-23T07:36:55.024Z,88.66
2018-09-23T07:37:57.433Z,88.76
2018-09-23T07:38:54.736Z,88.85
2018-09-23T07:39:54.696Z,88.56
2018-09-23T07:40:54.590Z,88.37
2018-09-23T07:41:54.519Z,89.14
2018-09-23T07:42:54.443Z,90.29
2018-09-23T07:43:54.370Z,89.14
2018-09-23T07:44:54.297Z,90.48
2018-09-23T07:45:54.226Z,89.62
2018-09-23T07:46:54.151Z,88.66
2018-09-23T07:47:54.109Z,87.46
2018-09-23T07:48:54.006Z,89.18
2018-09-23T07:49:53.935Z,90.86
2018-09-23T07:50:53.858Z,89.76
2018-09-23T07:51:53.786Z,90.81
2018-09-23T07:52:53.713Z,88.13
2018-09-23T07:53:53.639Z,89.66
2018-09-23T07:54:53.568Z,92.25
2018-09-23T07:55:53.500Z,92.63
2018-09-23T07:56:53.422Z,90.72
2018-09-23T07:57:53.349Z,90.91
2018-09-23T07:58:53.275Z,90.43
2018-09-23T07:59:53.203Z,90.81
2018-09-23T08:00:53.130Z,93.21
2018-09-23T08:01:53.057Z,92.92
2018-09-23T08:02:52.984Z,91.96
2018-09-23T08:03:52.912Z,92.35
2018-09-23T08:04:52.839Z,92.44
2018-09-23T08:05:52.766Z,93.49
2018-09-23T08:06:52.691Z,91.39
2018-09-23T08:07:52.620Z,93.98
2018-09-23T08:08:52.550Z,91.63
2018-09-23T08:09:52.482Z,91.24
2018-09-23T08:10:52.404Z,93.30
2018-09-23T08:11:52.381Z,96.80
2018-09-23T08:12:52.379Z,94.89
2018-09-23T08:13:52.426Z,96.22
2018-09-23T08:14:52.489Z,99.68
2018-09-23T08:15:52.043Z,97.47
2018-09-23T08:16:52.066Z,99.99
2018-09-23T08:17:51.893Z,96.89
2018-09-23T08:18:51.821Z,99.01
2018-09-23T08:19:51.953Z,99.99
2018-09-23T08:20:51.691Z,97.38
2018-09-23T08:21:51.603Z,96.42
2018-09-23T08:22:51.571Z,97.66
2018-09-23T08:23:51.457Z,99.96
2018-09-23T08:24:51.385Z,97.95
2018-09-23T08:25:51.315Z,97.38
2018-09-23T08:26:51.292Z,96.13
2018-09-23T08:27:51.168Z,97.09
2018-09-23T08:28:51.095Z,97.56
2018-09-23T08:29:51.023Z,96.99
2018-09-23T08:30:50.949Z,99.10
2018-09-23T08:31:50.877Z,97.66
2018-09-23T08:32:50.855Z,97.56
2018-09-23T08:33:50.733Z,97.95
2018-09-23T08:34:50.660Z,97.04
2018-09-23T08:35:50.588Z,98.10
2018-09-23T08:36:50.516Z,98.19
2018-09-23T08:37:50.444Z,99.05
2018-09-23T08:38:50.370Z,99.99
2018-09-23T08:39:50.324Z,99.99
2018-09-23T08:40:50.229Z,99.99
2018-09-23T08:41:50.155Z,99.99
2018-09-23T08:42:50.161Z,99.99
2018-09-23T08:43:50.011Z,99.99
2018-09-23T08:44:49.939Z,99.99
2018-09-23T08:45:49.866Z,99.99
2018-09-23T08:46:49.800Z,99.99
2018-09-23T08:47:49.923Z,99.99
2018-09-23T08:48:49.651Z,99.99
2018-09-23T08:49:49.579Z,99.99
2018-09-23T08:50:49.506Z,99.87
2018-09-23T08:51:49.449Z,99.99
2018-09-23T08:52:49.364Z,99.99
2018-09-23T08:53:49.291Z,99.99
2018-09-23T08:54:49.218Z,99.99
2018-09-23T08:55:49.146Z,99.68
2018-09-23T08:56:49.076Z,99.99
2018-09-23T08:57:49.033Z,99.99
2018-09-23T08:58:48.931Z,99.99
2018-09-23T08:59:48.858Z,99.99
2018-09-23T09:00:48.787Z,99.99
2018-09-23T09:01:48.719Z,99.99
2018-09-23T09:02:48.645Z,99.99
2018-09-23T09:03:48.693Z,99.99
2018-09-23T09:04:48.502Z,99.99
2018-09-23T09:05:48.428Z,99.99
2018-09-23T09:06:48.356Z,99.99
2018-09-23T09:07:48.285Z,99.99
2018-09-23T09:08:48.213Z,99.99
2018-09-23T09:09:48.142Z,99.99
2018-09-23T09:10:48.070Z,99.99
2018-09-23T09:11:48.047Z,99.99
2018-09-23T09:12:47.927Z,99.99
2018-09-23T09:13:47.907Z,99.99
2018-09-23T09:14:47.782Z,99.99
2018-09-23T09:15:47.711Z,99.99
2018-09-23T09:16:47.639Z,99.99
2018-09-23T09:17:47.567Z,99.99
2018-09-23T09:18:47.765Z,99.99
2018-09-23T09:19:47.424Z,99.99
2018-09-23T09:20:47.356Z,99.99
2018-09-23T09:21:47.283Z,99.99
2018-09-23T09:22:47.211Z,99.99
2018-09-23T09:23:47.138Z,99.99
2018-09-23T09:24:47.168Z,99.99
2018-09-23T09:25:46.996Z,99.99
2018-09-23T09:26:46.967Z,99.99
2018-09-23T09:27:46.853Z,99.99
2018-09-23T09:28:46.782Z,99.99
2018-09-23T09:29:46.811Z,99.99
2018-09-23T09:30:46.638Z,99.99
2018-09-23T09:31:46.567Z,99.99
2018-09-23T09:32:46.497Z,99.99
2018-09-23T09:33:46.426Z,99.99
2018-09-23T09:34:46.455Z,99.99
2018-09-23T09:35:46.283Z,99.99
2018-09-23T09:36:46.218Z,99.99
2018-09-23T09:37:46.141Z,99.99
2018-09-23T09:38:46.069Z,99.99
2018-09-23T09:39:46.198Z,99.99
2018-09-23T09:40:45.927Z,99.99
2018-09-23T09:41:45.857Z,99.99
2018-09-23T09:42:45.784Z,99.99
2018-09-23T09:43:45.722Z,99.99
2018-09-23T09:44:45.643Z,99.99
2018-09-23T09:45:45.571Z,99.99
2018-09-23T09:46:45.506Z,99.99
2018-09-23T09:47:45.429Z,99.99
2018-09-23T09:48:45.359Z,99.99
2018-09-23T09:49:45.288Z,99.99
2018-09-23T09:50:45.216Z,99.99
2018-09-23T09:51:45.145Z,99.99
2018-09-23T09:52:45.076Z,99.99
2018-09-23T09:53:45.004Z,99.99
2018-09-23T09:54:44.932Z,99.99
2018-09-23T09:55:44.862Z,99.99
2018-09-23T09:56:44.790Z,99.99
2018-09-23T09:57:44.719Z,99.99
2018-09-23T09:58:44.664Z,99.99
2018-09-23T09:59:44.577Z,99.99
2018-09-23T10:00:44.506Z,99.99
2018-09-23T10:01:44.436Z,99.99
2018-09-23T10:02:44.363Z,99.99
2018-09-23T10:03:44.336Z,99.99
2018-09-23T10:04:44.221Z,99.99
2018-09-23T10:05:44.151Z,99.99
2018-09-23T10:06:44.079Z,99.99
2018-09-23T10:07:44.009Z,99.99
2018-09-23T10:08:43.943Z,99.99
2018-09-23T10:09:43.866Z,99.99
2018-09-23T10:10:43.794Z,99.99
2018-09-23T10:11:43.724Z,99.99
2018-09-23T10:12:43.653Z,99.99
2018-09-23T10:13:43.682Z,99.99
2018-09-23T10:14:43.511Z,99.99
2018-09-23T10:15:43.439Z,99.99
2018-09-23T10:16:43.368Z,99.99
2018-09-23T10:17:43.301Z,99.99
2018-09-23T10:18:43.277Z,99.99
2018-09-23T10:19:43.175Z,99.99
2018-09-23T10:21:02.290Z,99.99
2018-09-23T10:21:43.014Z,99.99
2018-09-23T10:22:43.124Z,99.99
2018-09-23T10:23:43.057Z,99.99
2018-09-23T10:24:42.802Z,99.99
2018-09-23T10:25:42.731Z,99.99
2018-09-23T10:26:42.662Z,99.99
2018-09-23T10:27:42.591Z,99.99
2018-09-23T10:28:42.519Z,99.99
2018-09-23T10:29:42.465Z,99.99
2018-09-23T10:30:42.379Z,99.99
2018-09-23T10:31:42.366Z,99.99
2018-09-23T10:32:42.236Z,99.99
2018-09-23T10:33:42.167Z,99.99
2018-09-23T10:34:42.097Z,99.99
2018-09-23T10:35:42.032Z,99.99
2018-09-23T10:36:41.956Z,99.99
2018-09-23T10:37:41.886Z,99.99
2018-09-23T10:38:41.815Z,99.99
2018-09-23T10:39:41.845Z,99.99
2018-09-23T10:40:41.676Z,99.99
2018-09-23T10:41:41.606Z,99.99
2018-09-23T10:42:41.535Z,99.99
2018-09-23T10:43:41.464Z,99.99
2018-09-23T10:44:41.393Z,99.99
2018-09-23T10:45:41.576Z,99.99
2018-09-23T10:46:41.252Z,99.99
2018-09-23T10:47:41.183Z,99.99
2018-09-23T10:48:41.112Z,99.99
2018-09-23T10:49:41.043Z,99.99
2018-09-23T10:50:40.971Z,99.99
2018-09-23T10:51:40.899Z,99.99
2018-09-23T10:52:40.831Z,99.99
2018-09-23T10:53:40.762Z,99.99
2018-09-23T10:54:40.691Z,99.99
2018-09-23T10:55:40.673Z,99.99
2018-09-23T10:56:40.553Z,99.99
2018-09-23T10:57:40.479Z,99.99
2018-09-23T10:58:40.408Z,99.99
2018-09-23T10:59:40.340Z,99.99
2018-09-23T11:00:40.270Z,99.99
2018-09-23T11:01:40.197Z,99.99
2018-09-23T11:02:40.126Z,99.99
2018-09-23T11:03:40.064Z,99.99
2018-09-23T11:04:39.985Z,99.99
2018-09-23T11:05:39.915Z,99.99
2018-09-23T11:06:39.842Z,99.99
2018-09-23T11:07:39.773Z,99.99
2018-09-23T11:08:39.703Z,99.99
2018-09-23T11:09:39.636Z,99.99
2018-09-23T11:10:39.560Z,99.99
2018-09-23T11:11:39.488Z,99.99
2018-09-23T11:12:39.418Z,99.99
2018-09-23T11:13:39.348Z,99.99
2018-09-23T11:14:39.276Z,99.99
2018-09-23T11:15:39.206Z,99.99
2018-09-23T11:16:39.135Z,99.99
2018-09-23T11:17:39.065Z,99.99
2018-09-23T11:18:38.995Z,99.99
2018-09-23T11:19:38.923Z,99.99
2018-09-23T11:20:38.852Z,99.99
2018-09-23T11:21:38.780Z,99.99
2018-09-23T11:22:38.709Z,99.99
2018-09-23T11:23:38.639Z,99.99
2018-09-23T11:24:38.573Z,99.99
2018-09-23T11:25:38.498Z,99.99
2018-09-23T11:26:38.425Z,99.99
2018-09-23T11:27:38.354Z,99.99
2018-09-23T11:28:38.283Z,99.99
2018-09-23T11:29:38.212Z,99.99
2018-09-23T11:30:38.163Z,99.99
2018-09-23T11:31:38.072Z,99.99
2018-09-23T11:32:38.001Z,99.99
2018-09-23T11:33:37.930Z,99.99
2018-09-23T11:34:37.857Z,99.99
2018-09-23T11:35:37.787Z,99.99
2018-09-23T11:36:37.717Z,99.99
2018-09-23T11:37:37.653Z,99.99
2018-09-23T11:38:37.581Z,99.99
2018-09-23T11:39:37.505Z,99.99
2018-09-23T11:40:37.433Z,99.99
2018-09-23T11:41:37.362Z,99.99
2018-09-23T11:42:37.291Z,99.99
2018-09-23T11:43:37.225Z,99.99
2018-09-23T11:44:37.150Z,99.99
2018-09-23T11:45:37.080Z,99.99
2018-09-23T11:46:37.009Z,99.99
2018-09-23T11:47:36.937Z,99.99
2018-09-23T11:48:36.867Z,99.99
2018-09-23T11:49:36.797Z,99.99
2018-09-23T11:50:36.726Z,99.99
2018-09-23T11:51:36.655Z,99.99
2018-09-23T11:52:36.586Z,99.99
2018-09-23T11:53:36.516Z,99.99
2018-09-23T11:54:36.445Z,99.99
2018-09-23T11:55:36.374Z,99.99
2018-09-23T11:56:36.305Z,99.99
2018-09-23T11:57:36.233Z,99.99
2018-09-23T11:58:36.162Z,99.99
2018-09-23T11:59:36.097Z,99.99
2018-09-23T12:00:36.023Z,99.99
2018-09-23T12:01:36.002Z,99.99
2018-09-23T12:02:35.883Z,99.99
2018-09-23T12:03:35.815Z,99.99
2018-09-23T12:04:35.776Z,99.99
2018-09-23T12:05:35.673Z,99.99
2018-09-23T12:06:35.709Z,99.99
2018-09-23T12:07:35.532Z,99.99
2018-09-23T12:08:35.462Z,99.99
2018-09-23T12:09:35.393Z,99.99
2018-09-23T12:10:35.324Z,99.99
2018-09-23T12:11:35.256Z,99.99
2018-09-23T12:12:35.186Z,99.99
2018-09-23T12:13:35.114Z,99.99
2018-09-23T12:14:35.044Z,99.99
2018-09-23T12:15:34.990Z,99.99
2018-09-23T12:16:34.906Z,99.99
2018-09-23T12:17:34.840Z,99.99
2018-09-23T12:18:34.771Z,99.99
2018-09-23T12:19:34.700Z,99.99
2018-09-23T12:20:34.630Z,99.99
2018-09-23T12:21:34.560Z,99.99
2018-09-23T12:22:34.491Z,99.99
2018-09-23T12:23:34.423Z,99.99
2018-09-23T12:24:34.356Z,99.99
2018-09-23T12:25:34.371Z,99.99
2018-09-23T12:26:34.218Z,99.99
2018-09-23T12:27:34.150Z,99.99
2018-09-23T12:28:34.083Z,99.99
2018-09-23T12:29:34.023Z,98.00
2018-09-23T12:30:33.947Z,98.58
2018-09-23T12:31:33.880Z,99.94
2018-09-23T12:32:33.864Z,99.99
2018-09-23T12:33:33.748Z,99.99
2018-09-23T12:34:33.681Z,99.99
2018-09-23T12:35:33.613Z,99.51
2018-09-23T12:36:33.550Z,99.26
2018-09-23T12:37:33.481Z,97.28
2018-09-23T12:38:33.468Z,96.41
2018-09-23T12:39:33.381Z,94.96
2018-09-23T12:40:33.320Z,93.70
2018-09-23T12:41:33.216Z,92.87
2018-09-23T12:42:33.189Z,96.07
2018-09-23T12:43:33.175Z,95.39
2018-09-23T12:44:33.104Z,95.29
2018-09-23T12:45:32.975Z,96.22
2018-09-23T12:46:32.888Z,96.36
2018-09-23T12:47:32.823Z,97.52
2018-09-23T12:48:32.757Z,97.86
2018-09-23T12:49:32.694Z,99.21
2018-09-23T12:50:32.627Z,98.44
2018-09-23T12:51:32.563Z,97.72